Time;durP1;ratioP1;P1;durP2;ratioP2;P2;SDS_P1;SDS_P2;PMS_P1;PMS_P2;Temp;Humidity;BMP_temperature;BMP_pressure;BME280_temperature;BME280_humidity;BME280_pressure;Samples;Min_cycle;Max_cycle;Signal;HPM_P1;HPM_P2
2021/01/16 00:00:21;;;;;;;13.57;10.50;;;2.40;99.90;;;;;;5064789;28;20271;-57
2021/01/16 00:02:46;;;;;;;15.48;11.63;;;2.40;99.90;;;;;;5047787;28;20185;-58
2021/01/16 00:05:15;;;;;;;14.27;10.70;;;2.20;99.90;;;;;;5062567;28;20258;-58
2021/01/16 00:07:43;;;;;;;15.05;10.77;;;2.50;99.90;;;;;;5058832;28;20180;-58
2021/01/16 00:10:11;;;;;;;13.63;10.40;;;2.60;99.90;;;;;;5061473;28;20204;-57
2021/01/16 00:12:37;;;;;;;16.75;10.65;;;2.50;99.90;;;;;;5068378;28;20189;-58
2021/01/16 00:15:04;;;;;;;15.03;11.50;;;2.50;99.90;;;;;;5066016;28;20276;-58
2021/01/16 00:17:29;;;;;;;14.57;10.32;;;2.20;99.90;;;;;;5065463;28;20435;-57
2021/01/16 00:19:55;;;;;;;12.20;9.87;;;2.20;99.90;;;;;;5065432;28;20275;-57
2021/01/16 00:22:20;;;;;;;14.10;10.73;;;2.20;99.90;;;;;;5060825;28;20188;-57
2021/01/16 00:24:46;;;;;;;15.50;11.50;;;2.20;99.90;;;;;;5066785;28;20201;-58
2021/01/16 00:27:12;;;;;;;17.63;11.60;;;2.20;99.90;;;;;;5064082;28;20177;-57
2021/01/16 00:29:37;;;;;;;14.23;10.17;;;2.10;99.90;;;;;;5070059;28;20307;-58
2021/01/16 00:32:03;;;;;;;15.57;10.97;;;2.30;99.90;;;;;;5065095;28;20192;-57
2021/01/16 00:34:28;;;;;;;14.50;10.73;;;2.40;99.90;;;;;;5070903;28;20192;-58
2021/01/16 00:36:54;;;;;;;16.90;11.60;;;2.50;99.90;;;;;;5069753;28;20450;-58
2021/01/16 00:39:20;;;;;;;14.17;10.27;;;2.20;99.90;;;;;;5068509;28;20244;-58
2021/01/16 00:41:46;;;;;;;15.13;11.10;;;2.40;99.90;;;;;;5063673;28;20439;-58
2021/01/16 00:44:11;;;;;;;14.97;11.10;;;2.30;99.90;;;;;;5071076;28;20208;-58
2021/01/16 00:46:37;;;;;;;15.67;11.30;;;1.90;99.90;;;;;;5071607;28;20183;-58
2021/01/16 00:49:02;;;;;;;15.93;11.73;;;2.30;99.90;;;;;;5058592;28;20197;-58
2021/01/16 00:51:28;;;;;;;16.80;11.33;;;2.50;99.90;;;;;;5059036;28;20177;-58
2021/01/16 00:53:54;;;;;;;17.97;12.40;;;2.60;99.90;;;;;;5061714;28;20197;-58
2021/01/16 00:56:19;;;;;;;15.80;11.50;;;2.50;99.90;;;;;;5064686;28;20185;-58
2021/01/16 00:58:45;;;;;;;12.73;10.20;;;2.50;99.90;;;;;;5066959;28;20208;-58
2021/01/16 01:01:10;;;;;;;14.43;11.80;;;2.60;99.90;;;;;;5058735;28;20295;-57
2021/01/16 01:03:36;;;;;;;13.90;11.50;;;2.60;99.90;;;;;;5067229;28;20220;-58
2021/01/16 01:06:02;;;;;;;14.70;10.93;;;2.60;99.90;;;;;;5062367;28;20184;-58
2021/01/16 01:08:29;;;;;;;16.20;12.13;;;2.30;99.90;;;;;;5066749;28;20212;-58
2021/01/16 01:10:54;;;;;;;14.82;11.73;;;2.30;99.90;;;;;;5059812;28;20176;-59
2021/01/16 01:13:20;;;;;;;17.57;12.17;;;2.50;99.90;;;;;;5069357;28;20672;-58
2021/01/16 01:15:46;;;;;;;15.40;11.23;;;2.40;99.90;;;;;;5058014;28;20215;-58
2021/01/16 01:18:11;;;;;;;16.80;12.43;;;2.40;99.90;;;;;;5070455;28;20435;-58
2021/01/16 01:20:37;;;;;;;15.77;12.27;;;2.40;99.90;;;;;;5062044;28;20185;-58
2021/01/16 01:23:03;;;;;;;16.03;11.93;;;2.40;99.90;;;;;;5066634;28;20216;-58
2021/01/16 01:25:29;;;;;;;18.30;11.80;;;2.60;99.90;;;;;;5069643;28;20216;-58
2021/01/16 01:27:57;;;;;;;18.60;11.73;;;2.70;99.90;;;;;;5055215;28;20436;-58
2021/01/16 01:30:26;;;;;;;16.55;12.57;;;2.50;99.90;;;;;;5059512;28;20189;-58
2021/01/16 01:32:52;;;;;;;15.35;10.75;;;2.50;99.90;;;;;;5055205;28;20189;-59
2021/01/16 01:35:19;;;;;;;14.65;10.95;;;2.60;99.90;;;;;;5064436;28;20192;-58
2021/01/16 01:37:54;;;;;;;17.40;12.15;;;2.50;99.90;;;;;;5055842;28;20721;-58
2021/01/16 01:40:23;;;;;;;15.05;11.25;;;2.40;99.90;;;;;;5065143;28;20231;-58
2021/01/16 01:42:50;;;;;;;15.20;11.40;;;2.50;99.90;;;;;;5066986;28;20240;-58
2021/01/16 01:45:16;;;;;;;14.27;10.38;;;2.40;99.90;;;;;;5065532;28;20254;-58
2021/01/16 01:47:43;;;;;;;16.70;11.73;;;2.30;99.90;;;;;;5061929;28;20253;-57
2021/01/16 01:50:11;;;;;;;17.23;12.32;;;2.20;99.90;;;;;;5070123;28;20259;-58
2021/01/16 01:52:38;;;;;;;17.25;11.48;;;2.40;99.90;;;;;;5059660;28;20642;-58
2021/01/16 01:55:06;;;;;;;21.05;12.70;;;2.60;99.90;;;;;;5070194;28;20245;-58
2021/01/16 01:57:39;;;;;;;17.30;12.75;;;2.60;99.90;;;;;;5055928;28;20599;-58
2021/01/16 02:00:09;;;;;;;18.73;13.40;;;2.40;99.90;;;;;;5063305;28;20209;-58
2021/01/16 02:02:36;;;;;;;17.85;12.20;;;2.40;99.90;;;;;;5050626;28;20194;-58
2021/01/16 02:05:06;;;;;;;16.00;10.60;;;2.50;99.90;;;;;;5063406;28;20578;-58
2021/01/16 02:07:37;;;;;;;14.80;11.45;;;2.40;99.90;;;;;;5059396;28;20677;-58
2021/01/16 02:10:10;;;;;;;17.65;12.23;;;2.30;99.90;;;;;;5068473;28;20207;-58
2021/01/16 02:12:38;;;;;;;18.95;12.98;;;2.30;99.90;;;;;;5064367;28;20185;-58
2021/01/16 02:15:21;;;;;;;16.02;11.32;;;2.30;99.90;;;;;;5063376;28;20197;-58
2021/01/16 02:17:53;;;;;;;17.33;11.65;;;2.20;99.90;;;;;;5067423;28;20814;-58
2021/01/16 02:20:34;;;;;;;18.73;11.70;;;2.50;99.90;;;;;;5066367;28;20709;-57
2021/01/16 02:23:04;;;;;;;21.10;12.25;;;2.20;99.90;;;;;;5064460;28;20192;-58
2021/01/16 02:25:42;;;;;;;16.45;11.25;;;2.40;99.90;;;;;;5069610;28;20208;-58
2021/01/16 02:28:08;;;;;;;16.63;11.95;;;2.20;99.90;;;;;;5067627;28;20277;-58
2021/01/16 02:30:36;;;;;;;16.73;11.70;;;2.10;99.90;;;;;;5068161;28;20223;-58
2021/01/16 02:33:05;;;;;;;14.20;10.02;;;2.20;99.90;;;;;;5057804;28;20173;-57
2021/01/16 02:35:32;;;;;;;18.17;12.48;;;1.90;99.90;;;;;;5061298;28;20194;-58
2021/01/16 02:38:15;;;;;;;16.70;12.15;;;2.00;99.90;;;;;;5063540;28;20693;-57
2021/01/16 02:40:46;;;;;;;17.23;11.48;;;2.10;99.90;;;;;;5055483;28;20622;-57
2021/01/16 02:43:21;;;;;;;16.40;11.38;;;1.90;99.90;;;;;;5060675;28;20186;-58
2021/01/16 02:46:12;;;;;;;16.52;12.30;;;2.20;99.90;;;;;;5065453;28;20288;-58
2021/01/16 02:48:55;;;;;;;18.90;13.02;;;2.20;99.90;;;;;;5060254;28;20225;-58
2021/01/16 02:51:26;;;;;;;15.30;11.68;;;1.90;99.90;;;;;;5053938;28;20181;-58
2021/01/16 02:53:53;;;;;;;17.65;12.32;;;1.90;99.90;;;;;;5066353;28;20178;-59
2021/01/16 02:56:28;;;;;;;21.08;11.82;;;2.00;99.90;;;;;;5067935;28;20189;-58
2021/01/16 02:58:55;;;;;;;17.92;12.52;;;1.90;99.90;;;;;;5068746;28;20410;-59
2021/01/16 03:01:20;;;;;;;16.92;12.18;;;2.00;99.90;;;;;;5062089;28;20178;-57
2021/01/16 03:03:46;;;;;;;18.50;12.23;;;1.90;99.90;;;;;;5066772;28;20203;-57
2021/01/16 03:06:12;;;;;;;15.80;11.73;;;2.00;99.90;;;;;;5062470;28;20169;-57
2021/01/16 03:08:38;;;;;;;18.33;12.52;;;2.10;99.90;;;;;;5066012;28;20247;-57
2021/01/16 03:11:06;;;;;;;22.77;12.95;;;1.90;99.90;;;;;;5066018;28;20185;-58
2021/01/16 03:13:33;;;;;;;18.08;11.25;;;2.00;99.90;;;;;;5082204;28;20193;-57
2021/01/16 03:16:03;;;;;;;16.63;10.65;;;1.80;99.90;;;;;;5061825;28;20185;-57
2021/01/16 03:18:31;;;;;;;18.58;12.07;;;2.10;99.90;;;;;;5054436;28;20689;-58
2021/01/16 03:21:01;;;;;;;17.35;11.75;;;1.90;99.90;;;;;;5068545;28;20658;-58
2021/01/16 03:23:31;;;;;;;18.63;11.82;;;2.10;99.90;;;;;;5067570;28;20197;-57
2021/01/16 03:25:56;;;;;;;16.58;10.98;;;2.30;99.90;;;;;;5057252;28;20292;-57
2021/01/16 03:28:22;;;;;;;19.67;11.90;;;2.20;99.90;;;;;;5056264;28;20747;-57
2021/01/16 03:30:47;;;;;;;15.87;11.37;;;2.00;99.90;;;;;;5063517;28;20182;-57
2021/01/16 03:33:13;;;;;;;20.37;11.80;;;2.00;99.90;;;;;;5059765;28;20212;-57
2021/01/16 03:35:38;;;;;;;20.50;12.73;;;2.00;99.90;;;;;;5062547;28;20181;-58
2021/01/16 03:38:04;;;;;;;18.57;12.77;;;1.90;99.90;;;;;;5060048;28;20670;-57
2021/01/16 03:40:30;;;;;;;20.30;13.20;;;2.10;99.90;;;;;;5055680;28;20190;-57
2021/01/16 03:42:56;;;;;;;18.80;12.90;;;1.70;99.90;;;;;;5067637;28;20187;-57
2021/01/16 03:45:22;;;;;;;20.47;14.30;;;1.90;99.90;;;;;;5056877;28;20202;-57
2021/01/16 03:47:48;;;;;;;18.25;12.55;;;1.70;99.90;;;;;;5066751;28;20283;-58
2021/01/16 03:50:14;;;;;;;17.20;12.60;;;1.90;99.90;;;;;;5050953;28;20310;-58
2021/01/16 03:52:41;;;;;;;18.77;13.00;;;1.80;99.90;;;;;;5055793;28;20529;-57
2021/01/16 03:55:08;;;;;;;18.35;12.38;;;1.80;99.90;;;;;;5068014;28;20267;-58
2021/01/16 03:57:34;;;;;;;20.20;14.00;;;2.20;99.90;;;;;;5065125;28;20200;-57
2021/01/16 04:00:00;;;;;;;18.57;11.73;;;2.10;99.90;;;;;;5067828;28;20209;-57
2021/01/16 04:02:25;;;;;;;18.80;13.40;;;2.20;99.90;;;;;;5058153;28;20299;-57
2021/01/16 04:04:51;;;;;;;19.97;13.03;;;1.90;99.90;;;;;;5060669;28;20495;-58
2021/01/16 04:07:17;;;;;;;21.90;14.20;;;2.20;99.90;;;;;;5068308;28;20279;-58
2021/01/16 04:09:44;;;;;;;20.03;13.20;;;2.00;99.90;;;;;;5065511;28;20208;-58
2021/01/16 04:12:10;;;;;;;18.70;12.77;;;2.00;99.90;;;;;;5056796;28;20201;-58
2021/01/16 04:14:36;;;;;;;19.80;13.38;;;2.00;99.90;;;;;;5052689;28;20201;-58
2021/01/16 04:17:07;;;;;;;24.20;14.93;;;2.20;99.90;;;;;;5054633;28;20181;-57
2021/01/16 04:19:32;;;;;;;21.70;13.48;;;2.40;99.90;;;;;;5063508;28;20205;-58
2021/01/16 04:21:59;;;;;;;21.10;14.10;;;2.30;99.90;;;;;;5068282;28;20569;-59
2021/01/16 04:24:25;;;;;;;20.40;13.77;;;2.20;99.90;;;;;;5054125;28;20209;-59
2021/01/16 04:26:51;;;;;;;19.70;13.63;;;2.20;99.90;;;;;;5067748;28;20212;-59
2021/01/16 04:29:17;;;;;;;20.35;13.52;;;1.60;99.90;;;;;;5067419;28;20204;-58
2021/01/16 04:31:42;;;;;;;19.50;13.80;;;2.20;99.90;;;;;;5065095;28;20693;-58
2021/01/16 04:34:08;;;;;;;23.17;12.97;;;2.20;99.90;;;;;;5052939;28;20410;-57
2021/01/16 04:36:37;;;;;;;18.23;12.50;;;2.30;99.90;;;;;;5065723;28;20234;-58
2021/01/16 04:39:04;;;;;;;16.85;12.55;;;2.00;99.90;;;;;;5067413;28;20208;-58
2021/01/16 04:41:31;;;;;;;19.42;12.77;;;2.40;99.90;;;;;;5063999;28;20189;-59
2021/01/16 04:43:58;;;;;;;19.70;13.60;;;2.70;99.90;;;;;;5080341;28;20189;-58
2021/01/16 04:46:24;;;;;;;16.58;12.77;;;2.00;99.90;;;;;;5058111;28;20230;-59
2021/01/16 04:49:01;;;;;;;20.27;13.00;;;2.20;99.90;;;;;;5050949;28;20201;-58
2021/01/16 04:51:32;;;;;;;21.27;14.00;;;1.80;99.90;;;;;;5057515;28;20193;-58
2021/01/16 04:54:01;;;;;;;21.73;14.10;;;2.20;99.90;;;;;;5066534;28;20181;-58
2021/01/16 04:56:28;;;;;;;19.52;12.88;;;1.40;99.90;;;;;;5064648;28;20236;-58
2021/01/16 04:58:54;;;;;;;17.20;12.48;;;2.00;99.90;;;;;;5061605;28;20233;-58
2021/01/16 05:01:21;;;;;;;21.55;12.95;;;1.70;99.90;;;;;;5052290;28;20214;-58
2021/01/16 05:03:50;;;;;;;20.42;13.40;;;2.10;99.90;;;;;;5064202;28;20177;-58
2021/01/16 05:06:18;;;;;;;17.77;12.93;;;1.90;99.90;;;;;;5069610;28;20189;-59
2021/01/16 05:08:45;;;;;;;20.33;13.45;;;2.00;99.90;;;;;;5070040;28;20201;-59
2021/01/16 05:11:25;;;;;;;23.50;14.38;;;2.10;99.90;;;;;;5070198;28;20196;-58
2021/01/16 05:14:08;;;;;;;17.40;12.63;;;2.50;99.90;;;;;;5052263;28;20265;-58
2021/01/16 05:17:00;;;;;;;21.42;14.15;;;2.30;99.90;;;;;;5063547;28;20465;-58
2021/01/16 05:19:32;;;;;;;23.30;14.48;;;2.00;99.90;;;;;;5053529;28;20217;-58
2021/01/16 05:21:58;;;;;;;24.35;14.50;;;1.80;99.90;;;;;;5057115;28;20658;-58
2021/01/16 05:24:24;;;;;;;18.38;12.80;;;2.10;99.90;;;;;;5072095;28;20213;-58
2021/01/16 05:27:04;;;;;;;16.43;13.03;;;2.10;99.90;;;;;;5061790;28;20185;-58
2021/01/16 05:29:31;;;;;;;25.05;14.20;;;2.20;99.90;;;;;;5060104;28;21193;-59
2021/01/16 05:32:00;;;;;;;20.65;13.32;;;2.00;99.90;;;;;;5068113;28;20557;-58
2021/01/16 05:34:29;;;;;;;21.35;13.18;;;1.90;99.90;;;;;;5067615;28;20664;-58
2021/01/16 05:36:57;;;;;;;25.75;14.85;;;2.20;99.90;;;;;;5059422;28;20199;-58
2021/01/16 05:39:26;;;;;;;22.30;14.15;;;2.10;99.90;;;;;;5064468;28;20575;-58
2021/01/16 05:42:05;;;;;;;21.83;13.35;;;1.60;99.90;;;;;;5061121;28;20192;-57
2021/01/16 05:44:31;;;;;;;26.17;14.00;;;2.30;99.90;;;;;;5056937;28;20233;-58
2021/01/16 05:46:58;;;;;;;19.52;13.55;;;2.10;99.90;;;;;;5062178;28;20215;-59
2021/01/16 05:49:24;;;;;;;19.63;13.45;;;2.20;99.90;;;;;;5057000;28;20232;-57
2021/01/16 05:51:51;;;;;;;18.25;14.10;;;2.00;99.90;;;;;;5063222;28;20177;-58
2021/01/16 05:54:18;;;;;;;24.23;14.27;;;2.10;99.90;;;;;;5069415;28;20235;-58
2021/01/16 05:56:45;;;;;;;21.60;14.27;;;2.30;99.90;;;;;;5060341;28;20189;-57
2021/01/16 05:59:19;;;;;;;18.33;13.68;;;2.10;99.90;;;;;;5058529;28;20213;-58
2021/01/16 06:01:47;;;;;;;21.73;14.02;;;2.30;99.90;;;;;;5059055;28;20716;-58
2021/01/16 06:04:20;;;;;;;17.63;13.27;;;2.20;99.90;;;;;;5053656;28;20296;-59
2021/01/16 06:06:47;;;;;;;18.85;13.18;;;2.10;99.90;;;;;;5063301;28;20223;-57
2021/01/16 06:09:20;;;;;;;19.27;13.20;;;2.30;99.90;;;;;;5058759;28;20197;-57
2021/01/16 06:11:50;;;;;;;19.75;12.98;;;2.00;99.90;;;;;;5066456;28;20200;-58
2021/01/16 06:14:18;;;;;;;20.98;14.80;;;1.90;99.90;;;;;;5067603;28;20203;-57
2021/01/16 06:16:46;;;;;;;17.95;13.88;;;2.00;99.90;;;;;;5059008;28;20280;-57
2021/01/16 06:19:17;;;;;;;20.80;12.68;;;2.00;99.90;;;;;;5057745;28;20287;-59
2021/01/16 06:21:43;;;;;;;19.40;12.95;;;2.30;99.90;;;;;;5067467;28;20193;-58
2021/01/16 06:24:15;;;;;;;22.13;15.47;;;2.00;99.90;;;;;;5062296;28;20224;-58
2021/01/16 06:26:42;;;;;;;21.50;14.57;;;2.30;99.90;;;;;;5069229;28;20442;-58
2021/01/16 06:29:23;;;;;;;21.65;14.10;;;2.10;99.90;;;;;;5068990;28;20189;-59
2021/01/16 06:31:50;;;;;;;19.58;13.90;;;2.00;99.90;;;;;;5065648;28;20318;-57
2021/01/16 06:34:28;;;;;;;26.38;15.45;;;2.10;99.90;;;;;;5072750;28;20230;-58
2021/01/16 06:37:12;;;;;;;20.30;13.60;;;1.80;99.90;;;;;;5059512;28;20276;-58
2021/01/16 06:39:42;;;;;;;17.13;13.15;;;1.90;99.90;;;;;;5063822;28;20204;-59
2021/01/16 06:42:13;;;;;;;18.05;13.63;;;2.00;99.90;;;;;;5064518;28;20198;-58
2021/01/16 06:44:40;;;;;;;20.13;13.68;;;2.10;99.90;;;;;;5056239;28;20270;-57
2021/01/16 06:47:07;;;;;;;19.80;13.70;;;2.20;99.90;;;;;;5060049;28;20217;-58
2021/01/16 06:49:34;;;;;;;21.35;15.05;;;1.90;99.90;;;;;;5068612;28;20237;-59
2021/01/16 06:52:02;;;;;;;22.15;13.63;;;1.80;99.90;;;;;;5057159;28;20177;-59
2021/01/16 06:54:36;;;;;;;19.67;14.10;;;2.00;99.90;;;;;;5049207;28;20225;-58
2021/01/16 06:57:14;;;;;;;20.45;13.57;;;2.00;99.90;;;;;;5050300;28;20182;-58
2021/01/16 06:59:42;;;;;;;20.13;12.80;;;1.90;99.90;;;;;;5063552;28;20208;-58
2021/01/16 07:02:27;;;;;;;19.20;14.70;;;2.00;99.90;;;;;;5056756;28;20212;-58
2021/01/16 07:04:59;;;;;;;21.35;14.80;;;1.80;99.90;;;;;;5066011;28;20739;-58
2021/01/16 07:07:28;;;;;;;19.77;13.60;;;1.50;99.90;;;;;;5058083;28;20302;-57
2021/01/16 07:09:59;;;;;;;19.98;13.70;;;1.80;99.90;;;;;;5062732;28;20213;-58
2021/01/16 07:12:25;;;;;;;18.17;13.90;;;1.80;99.90;;;;;;5059530;28;20178;-58
2021/01/16 07:14:51;;;;;;;21.70;14.50;;;2.00;99.90;;;;;;5063829;28;20563;-57
2021/01/16 07:17:20;;;;;;;18.83;13.50;;;2.00;99.90;;;;;;5060577;28;20471;-58
2021/01/16 07:19:46;;;;;;;21.38;13.27;;;2.00;99.90;;;;;;5055465;28;20288;-58
2021/01/16 07:22:12;;;;;;;19.20;13.10;;;2.00;99.90;;;;;;5059375;28;20564;-59
2021/01/16 07:24:38;;;;;;;20.80;13.67;;;1.90;99.90;;;;;;5069091;28;20333;-58
2021/01/16 07:27:05;;;;;;;22.02;13.45;;;1.60;99.90;;;;;;5061026;28;20178;-57
2021/01/16 07:29:36;;;;;;;20.55;14.05;;;1.50;99.90;;;;;;5067625;28;20674;-58
2021/01/16 07:32:09;;;;;;;18.58;13.25;;;1.60;99.90;;;;;;5061909;28;20224;-59
2021/01/16 07:34:34;;;;;;;22.75;14.35;;;1.70;99.90;;;;;;5054037;28;20823;-58
2021/01/16 07:37:01;;;;;;;22.53;14.40;;;1.80;99.90;;;;;;5067213;28;20268;-57
2021/01/16 07:39:28;;;;;;;22.00;14.10;;;1.60;99.90;;;;;;5062607;28;20698;-58
2021/01/16 07:42:00;;;;;;;19.75;13.15;;;1.80;99.90;;;;;;5065511;28;20694;-58
2021/01/16 07:44:32;;;;;;;21.75;13.65;;;2.00;99.90;;;;;;5064416;28;20229;-59
2021/01/16 07:47:00;;;;;;;21.55;14.35;;;1.80;99.90;;;;;;5059814;28;20253;-57
2021/01/16 07:49:29;;;;;;;22.63;13.50;;;1.80;99.90;;;;;;5067621;28;20197;-56
2021/01/16 07:51:56;;;;;;;26.13;14.88;;;1.40;99.90;;;;;;5066377;28;20677;-56
2021/01/16 07:54:23;;;;;;;21.00;13.38;;;2.10;99.90;;;;;;5067942;28;20265;-56
2021/01/16 07:56:58;;;;;;;19.33;12.65;;;2.10;99.90;;;;;;5061014;28;20185;-57
2021/01/16 07:59:32;;;;;;;19.75;13.55;;;2.00;99.90;;;;;;5054458;28;20251;-58
2021/01/16 08:01:57;;;;;;;21.35;14.02;;;1.80;99.90;;;;;;5067868;28;20189;-57
2021/01/16 08:04:36;;;;;;;19.17;13.70;;;1.90;99.90;;;;;;5063246;28;20235;-57
2021/01/16 08:07:09;;;;;;;21.98;13.52;;;1.90;99.90;;;;;;5060062;28;20185;-58
2021/01/16 08:09:52;;;;;;;20.10;13.75;;;1.90;99.90;;;;;;5062257;28;20592;-57
2021/01/16 08:12:26;;;;;;;20.63;13.13;;;2.00;99.90;;;;;;5060762;28;20181;-60
2021/01/16 08:14:53;;;;;;;21.45;15.95;;;2.10;99.90;;;;;;5050302;28;20188;-60
2021/01/16 08:17:24;;;;;;;21.33;14.75;;;1.70;99.90;;;;;;5052343;28;20193;-59
2021/01/16 08:20:13;;;;;;;20.85;14.07;;;2.30;99.90;;;;;;5067391;28;20262;-57
2021/01/16 08:22:54;;;;;;;19.98;13.43;;;2.40;99.90;;;;;;5056129;28;20318;-59
2021/01/16 08:25:28;;;;;;;20.30;13.30;;;2.50;99.90;;;;;;5058483;28;20248;-58
2021/01/16 08:27:56;;;;;;;18.67;13.95;;;2.30;99.90;;;;;;5065485;28;20181;-59
2021/01/16 08:30:25;;;;;;;22.65;14.57;;;2.20;99.90;;;;;;5053322;28;20208;-58
2021/01/16 08:33:04;;;;;;;20.35;14.05;;;2.20;99.90;;;;;;5059463;28;20181;-59
2021/01/16 08:35:43;;;;;;;20.45;13.70;;;2.00;99.90;;;;;;5062154;28;20188;-58
2021/01/16 08:38:17;;;;;;;21.92;14.63;;;2.30;99.90;;;;;;5064066;28;20658;-55
2021/01/16 08:41:06;;;;;;;25.30;14.55;;;1.90;99.90;;;;;;5063129;28;20204;-58
2021/01/16 08:43:36;;;;;;;21.60;14.00;;;1.80;99.90;;;;;;5057697;28;20299;-57
2021/01/16 08:46:14;;;;;;;20.40;14.65;;;1.90;99.90;;;;;;5061361;28;20209;-55
2021/01/16 08:48:42;;;;;;;20.08;14.20;;;1.70;99.90;;;;;;5057668;28;20216;-55
2021/01/16 08:51:31;;;;;;;20.83;14.23;;;2.00;99.90;;;;;;5070945;28;20184;-56
2021/01/16 08:54:19;;;;;;;19.67;13.98;;;2.00;99.90;;;;;;5070595;28;20231;-56
2021/01/16 08:56:46;;;;;;;21.80;14.63;;;2.20;99.90;;;;;;5059434;28;20181;-56
2021/01/16 08:59:27;;;;;;;21.65;13.98;;;2.10;99.90;;;;;;5059082;28;20203;-59
2021/01/16 09:02:03;;;;;;;21.38;14.10;;;2.00;99.90;;;;;;5060743;28;20242;-58
2021/01/16 09:04:34;;;;;;;19.35;13.82;;;2.20;99.90;;;;;;5062719;28;20321;-58
2021/01/16 09:07:29;;;;;;;22.65;14.68;;;1.50;99.90;;;;;;5068804;28;20657;-58
2021/01/16 09:09:56;;;;;;;19.73;13.68;;;1.80;99.90;;;;;;5060273;28;20216;-59
2021/01/16 09:12:32;;;;;;;20.42;14.68;;;1.90;99.90;;;;;;5063169;28;20177;-58
2021/01/16 09:15:24;;;;;;;21.50;14.35;;;2.00;99.90;;;;;;5063776;28;20187;-58
2021/01/16 09:18:08;;;;;;;24.17;15.95;;;2.50;99.90;;;;;;5064785;28;20247;-58
2021/01/16 09:20:52;;;;;;;18.77;13.90;;;2.80;99.90;;;;;;5068205;28;20215;-58
2021/01/16 09:23:30;;;;;;;23.42;16.02;;;2.40;99.90;;;;;;5062333;28;20177;-59
2021/01/16 09:26:05;;;;;;;20.17;12.93;;;2.30;99.90;;;;;;5068988;28;20205;-58
2021/01/16 09:28:41;;;;;;;20.05;12.85;;;2.40;99.90;;;;;;5059185;28;20200;-57
2021/01/16 09:31:19;;;;;;;15.90;11.50;;;2.50;99.90;;;;;;5056745;28;20181;-59
2021/01/16 09:33:46;;;;;;;19.88;13.25;;;2.20;99.90;;;;;;5061094;28;20189;-58
2021/01/16 09:36:13;;;;;;;20.33;14.43;;;2.40;99.90;;;;;;5058800;28;20185;-58
2021/01/16 09:38:39;;;;;;;15.60;11.75;;;2.30;99.90;;;;;;5065183;28;20208;-59
2021/01/16 09:41:05;;;;;;;17.48;12.93;;;2.30;99.90;;;;;;5061565;28;20526;-58
2021/01/16 09:43:41;;;;;;;32.97;13.70;;;2.40;99.90;;;;;;5056565;28;20181;-59
2021/01/16 09:46:06;;;;;;;16.90;11.75;;;2.30;99.90;;;;;;5068532;28;20216;-58
2021/01/16 09:48:41;;;;;;;15.83;12.13;;;2.50;99.90;;;;;;5063769;28;20327;-58
2021/01/16 09:51:08;;;;;;;19.13;13.43;;;2.60;99.90;;;;;;5057631;28;20656;-58
2021/01/16 09:53:34;;;;;;;19.42;12.50;;;2.60;99.90;;;;;;5055127;28;20212;-59
2021/01/16 09:56:00;;;;;;;15.13;10.98;;;2.70;99.90;;;;;;5066206;28;20663;-58
2021/01/16 09:58:38;;;;;;;17.30;12.00;;;2.80;99.90;;;;;;5070911;28;20226;-58
2021/01/16 10:01:23;;;;;;;14.68;10.27;;;2.40;99.90;;;;;;5062920;28;20192;-58
2021/01/16 10:03:50;;;;;;;16.02;11.05;;;3.00;99.90;;;;;;5051126;28;20186;-58
2021/01/16 10:06:19;;;;;;;14.98;11.20;;;2.20;99.90;;;;;;5086762;28;20204;-59
2021/01/16 10:08:46;;;;;;;17.13;10.43;;;2.60;99.90;;;;;;5066326;28;20205;-59
2021/01/16 10:11:33;;;;;;;12.95;10.30;;;2.80;99.90;;;;;;5057059;28;20672;-59
2021/01/16 10:14:17;;;;;;;13.52;10.50;;;2.70;99.90;;;;;;5063766;28;20737;-59
2021/01/16 10:16:44;;;;;;;13.15;8.90;;;3.10;99.90;;;;;;5055384;28;20196;-59
2021/01/16 10:19:17;;;;;;;10.45;7.95;;;2.90;99.90;;;;;;5063292;28;20217;-59
2021/01/16 10:21:55;;;;;;;15.45;10.95;;;3.10;99.90;;;;;;5063840;28;20268;-58
2021/01/16 10:24:22;;;;;;;13.48;9.35;;;3.00;99.90;;;;;;5064694;28;20213;-60
2021/01/16 10:26:48;;;;;;;12.18;9.40;;;3.10;99.90;;;;;;5061831;28;20542;-60
2021/01/16 10:29:19;;;;;;;11.87;9.20;;;3.20;99.80;;;;;;5069033;28;20205;-60
2021/01/16 10:31:45;;;;;;;13.75;9.43;;;3.10;99.50;;;;;;5060690;28;20308;-59
2021/01/16 10:34:12;;;;;;;13.32;9.45;;;3.40;99.70;;;;;;5069555;28;20181;-59
2021/01/16 10:36:38;;;;;;;13.32;8.55;;;3.10;98.90;;;;;;5055949;28;20272;-60
2021/01/16 10:39:15;;;;;;;11.95;8.57;;;3.40;98.90;;;;;;5065222;28;20258;-59
2021/01/16 10:41:44;;;;;;;10.55;7.88;;;3.30;98.00;;;;;;5066654;28;20322;-58
2021/01/16 10:44:14;;;;;;;10.38;7.93;;;3.40;98.00;;;;;;5054677;28;20598;-58
2021/01/16 10:46:45;;;;;;;10.10;7.63;;;3.40;97.70;;;;;;5051018;28;20218;-59
2021/01/16 10:49:17;;;;;;;9.07;7.10;;;3.40;97.40;;;;;;5059611;28;20208;-59
2021/01/16 10:51:54;;;;;;;10.60;7.78;;;3.60;97.00;;;;;;5067147;28;20286;-59
2021/01/16 10:54:20;;;;;;;9.90;7.43;;;3.60;96.00;;;;;;5056485;28;20192;-59
2021/01/16 10:57:07;;;;;;;10.13;7.32;;;3.50;96.40;;;;;;5061957;28;20182;-59
2021/01/16 10:59:38;;;;;;;14.57;8.90;;;3.70;96.40;;;;;;5056844;28;20240;-58
2021/01/16 11:02:14;;;;;;;9.60;7.88;;;3.90;95.80;;;;;;5063294;28;20268;-59
2021/01/16 11:04:45;;;;;;;8.70;7.03;;;3.80;95.50;;;;;;5057037;28;20713;-59
2021/01/16 11:07:27;;;;;;;9.43;6.70;;;3.70;95.10;;;;;;5065530;28;20177;-60
2021/01/16 11:10:05;;;;;;;9.73;8.07;;;3.70;94.70;;;;;;5048817;28;20207;-58
2021/01/16 11:12:31;;;;;;;10.35;7.82;;;3.80;95.10;;;;;;5055381;28;20266;-58
2021/01/16 11:14:59;;;;;;;10.43;7.72;;;3.80;95.40;;;;;;5065554;28;20194;-59
2021/01/16 11:17:49;;;;;;;8.50;7.25;;;4.10;95.00;;;;;;5068182;28;20201;-60
2021/01/16 11:20:49;;;;;;;8.30;7.40;;;3.80;94.00;;;;;;5078257;28;20304;-59
2021/01/16 11:23:33;;;;;;;8.57;6.60;;;3.90;93.30;;;;;;5059646;28;20667;-60
2021/01/16 11:26:06;;;;;;;6.72;6.05;;;3.90;93.30;;;;;;5067036;28;20204;-59
2021/01/16 11:28:47;;;;;;;7.78;6.95;;;4.00;93.20;;;;;;5059657;28;20297;-58
2021/01/16 11:31:25;;;;;;;8.98;6.60;;;3.80;92.60;;;;;;5059437;28;20687;-59
2021/01/16 11:34:09;;;;;;;9.35;6.00;;;3.60;93.40;;;;;;5060121;28;20176;-59
2021/01/16 11:36:53;;;;;;;9.23;6.90;;;3.80;92.80;;;;;;5056183;28;20186;-58
2021/01/16 11:39:50;;;;;;;6.40;5.40;;;3.70;92.70;;;;;;5057423;28;20215;-58
2021/01/16 11:42:20;;;;;;;7.95;6.40;;;3.90;91.60;;;;;;5061681;28;20244;-58
2021/01/16 11:44:57;;;;;;;7.95;5.80;;;3.90;91.20;;;;;;5073235;28;20309;-58
2021/01/16 11:47:25;;;;;;;9.23;5.78;;;4.00;91.70;;;;;;5059830;28;20217;-57
2021/01/16 11:49:51;;;;;;;8.10;6.13;;;4.00;91.60;;;;;;5064107;28;20205;-58
2021/01/16 11:52:17;;;;;;;7.60;4.90;;;4.10;91.30;;;;;;5062950;28;20182;-57
2021/01/16 11:54:43;;;;;;;6.45;5.32;;;4.00;90.10;;;;;;5060485;28;20177;-59
2021/01/16 11:57:14;;;;;;;7.70;5.60;;;4.20;90.60;;;;;;5061875;28;20193;-59
2021/01/16 11:59:41;;;;;;;6.50;4.70;;;4.20;90.20;;;;;;5064206;28;20214;-58
2021/01/16 12:02:18;;;;;;;6.97;6.18;;;4.20;89.00;;;;;;5054984;28;20183;-58
2021/01/16 12:04:46;;;;;;;11.38;8.57;;;3.50;89.00;;;;;;5057010;28;20213;-57
2021/01/16 12:07:13;;;;;;;10.88;7.75;;;4.40;91.50;;;;;;5057688;28;20178;-59
2021/01/16 12:09:43;;;;;;;10.15;7.63;;;4.20;91.70;;;;;;5058225;28;20643;-58
2021/01/16 12:12:11;;;;;;;10.30;7.55;;;3.90;92.10;;;;;;5066924;28;20688;-59
2021/01/16 12:14:38;;;;;;;12.70;8.13;;;3.80;92.40;;;;;;5068916;28;20186;-60
2021/01/16 12:17:13;;;;;;;11.50;9.10;;;3.90;91.90;;;;;;5069377;28;20210;-58
2021/01/16 12:19:40;;;;;;;23.05;10.15;;;4.20;93.50;;;;;;5062926;28;20247;-59
2021/01/16 12:22:11;;;;;;;12.65;8.55;;;3.90;93.20;;;;;;5071347;28;20276;-58
2021/01/16 12:24:38;;;;;;;9.57;8.13;;;4.20;93.10;;;;;;5058133;28;20288;-59
2021/01/16 12:27:05;;;;;;;10.50;7.97;;;3.60;93.30;;;;;;5060890;28;20280;-59
2021/01/16 12:29:44;;;;;;;14.93;11.75;;;4.00;92.50;;;;;;5062358;28;20234;-59
2021/01/16 12:32:12;;;;;;;18.65;11.30;;;3.90;94.30;;;;;;5062278;28;20519;-61
2021/01/16 12:34:47;;;;;;;17.55;11.50;;;4.00;95.30;;;;;;5069734;28;20188;-58
2021/01/16 12:37:13;;;;;;;18.48;12.15;;;3.80;95.40;;;;;;5068654;28;20585;-57
2021/01/16 12:39:43;;;;;;;16.75;13.00;;;3.50;95.40;;;;;;5060278;28;20209;-58
2021/01/16 12:42:11;;;;;;;16.98;12.27;;;3.70;96.30;;;;;;5069962;28;20669;-59
2021/01/16 12:44:36;;;;;;;20.05;13.55;;;3.70;96.90;;;;;;5058410;28;20455;-57
2021/01/16 12:47:02;;;;;;;17.20;12.27;;;3.50;96.80;;;;;;5074146;28;20553;-57
2021/01/16 12:49:28;;;;;;;19.10;11.90;;;3.70;97.20;;;;;;5076885;28;20216;-57
2021/01/16 12:51:54;;;;;;;17.27;13.02;;;3.60;97.10;;;;;;5070025;28;20439;-61
2021/01/16 12:54:20;;;;;;;18.40;12.20;;;3.70;96.80;;;;;;5063304;28;20752;-57